createdAt,value
2018-10-05T00:02:01.248Z,6.97
2018-10-05T00:04:29.430Z,7.17
2018-10-05T00:06:57.545Z,7.73
2018-10-05T00:09:25.642Z,8.33
2018-10-05T00:11:53.718Z,8.07
2018-10-05T00:14:21.782Z,7.80
2018-10-05T00:16:49.878Z,7.93
2018-10-05T00:19:17.992Z,6.63
2018-10-05T00:21:46.062Z,7.87
2018-10-05T00:24:14.152Z,7.55
2018-10-05T00:26:42.233Z,8.30
2018-10-05T00:29:10.310Z,7.67
2018-10-05T00:31:38.382Z,7.03
2018-10-05T00:34:06.487Z,7.40
2018-10-05T00:36:34.572Z,7.43
2018-10-05T00:39:02.692Z,7.80
2018-10-05T00:41:30.794Z,7.53
2018-10-05T00:43:58.886Z,8.30
2018-10-05T00:46:27.043Z,6.90
2018-10-05T00:48:55.110Z,8.60
2018-10-05T00:51:23.195Z,8.75
2018-10-05T00:53:51.285Z,8.25
2018-10-05T00:56:19.351Z,8.57
2018-10-05T00:58:47.439Z,7.90
2018-10-05T01:01:15.506Z,7.10
2018-10-05T01:03:43.590Z,8.05
2018-10-05T01:06:11.671Z,6.97
2018-10-05T01:08:39.763Z,7.40
2018-10-05T01:11:07.858Z,7.23
2018-10-05T01:13:35.942Z,7.87
2018-10-05T01:16:04.014Z,8.13
2018-10-05T01:18:32.093Z,8.07
2018-10-05T01:21:00.169Z,7.70
2018-10-05T01:23:28.243Z,8.30
2018-10-05T01:25:56.307Z,7.67
2018-10-05T01:28:24.387Z,8.00
2018-10-05T01:30:52.445Z,7.47
2018-10-05T01:33:20.535Z,8.40
2018-10-05T01:35:48.602Z,8.30
2018-10-05T01:38:16.681Z,8.13
2018-10-05T01:40:44.755Z,8.07
2018-10-05T01:43:12.841Z,8.43
2018-10-05T01:45:40.936Z,6.90
2018-10-05T01:48:09.135Z,8.00
2018-10-05T01:50:37.205Z,8.33
2018-10-05T01:53:05.279Z,7.03
2018-10-05T01:55:33.350Z,7.87
2018-10-05T01:58:01.422Z,7.70
2018-10-05T02:00:29.494Z,7.53
2018-10-05T02:02:57.578Z,7.77
2018-10-05T02:05:25.646Z,8.07
2018-10-05T02:07:53.725Z,8.20
2018-10-05T02:10:21.810Z,7.83
2018-10-05T02:12:49.874Z,6.90
2018-10-05T02:15:17.954Z,8.20
2018-10-05T02:17:46.034Z,7.40
2018-10-05T02:20:14.102Z,6.90
2018-10-05T02:22:42.174Z,8.15
2018-10-05T02:25:10.250Z,7.60
2018-10-05T02:27:38.477Z,7.50
2018-10-05T02:30:06.400Z,8.50
2018-10-05T02:32:34.474Z,6.67
2018-10-05T02:35:02.550Z,6.72
2018-10-05T02:37:30.642Z,8.03
2018-10-05T02:39:58.722Z,9.18
2018-10-05T02:42:26.874Z,9.38
2018-10-05T02:44:54.943Z,8.33
2018-10-05T02:47:23.025Z,8.43
2018-10-05T02:49:51.102Z,7.37
2018-10-05T02:52:19.174Z,7.90
2018-10-05T02:54:47.276Z,7.30
2018-10-05T02:57:15.354Z,8.18
2018-10-05T02:59:43.443Z,7.90
2018-10-05T03:02:22.222Z,7.28
2018-10-05T03:04:50.305Z,8.95
2018-10-05T03:07:18.386Z,8.00
2018-10-05T03:09:46.470Z,8.18
2018-10-05T03:12:14.550Z,7.62
2018-10-05T03:14:42.627Z,8.80
2018-10-05T03:17:10.714Z,7.70
2018-10-05T03:19:38.816Z,8.63
2018-10-05T03:22:06.897Z,7.72
2018-10-05T03:24:34.974Z,8.05
2018-10-05T03:27:03.046Z,6.78
2018-10-05T03:29:31.126Z,8.70
2018-10-05T03:31:59.207Z,9.03
2018-10-05T03:34:27.358Z,8.58
2018-10-05T03:36:55.425Z,8.60
2018-10-05T03:39:23.512Z,7.70
2018-10-05T03:41:51.574Z,8.48
2018-10-05T03:44:19.654Z,8.00
2018-10-05T03:46:47.722Z,8.28
2018-10-05T03:49:15.805Z,8.33
2018-10-05T03:51:43.886Z,7.62
2018-10-05T03:54:11.974Z,7.22
2018-10-05T03:56:40.058Z,7.53
2018-10-05T03:59:08.134Z,7.70
2018-10-05T04:01:36.215Z,8.20
2018-10-05T04:04:04.314Z,8.13
2018-10-05T04:06:32.394Z,7.50
2018-10-05T04:09:00.458Z,7.53
2018-10-05T04:11:28.554Z,6.90
2018-10-05T04:13:56.627Z,7.75
2018-10-05T04:16:24.719Z,8.20
2018-10-05T04:18:52.797Z,7.40
2018-10-05T04:21:20.880Z,7.75
2018-10-05T04:23:48.946Z,7.65
2018-10-05T04:26:17.039Z,7.47
2018-10-05T04:28:45.123Z,8.40
2018-10-05T04:31:13.207Z,7.65
2018-10-05T04:33:41.291Z,8.93
2018-10-05T04:36:09.361Z,8.28
2018-10-05T04:38:37.452Z,7.70
2018-10-05T04:41:05.543Z,7.97
2018-10-05T04:43:33.591Z,8.10
2018-10-05T04:46:01.680Z,7.30
2018-10-05T04:48:29.770Z,7.00
2018-10-05T04:50:57.854Z,7.85
2018-10-05T04:53:26.295Z,7.83
2018-10-05T04:55:54.499Z,6.80
2018-10-05T04:58:22.763Z,7.67
2018-10-05T05:00:51.699Z,7.25
2018-10-05T05:03:20.038Z,7.28
2018-10-05T05:05:48.134Z,5.95
2018-10-05T05:08:16.206Z,6.78
2018-10-05T05:10:44.290Z,6.60
2018-10-05T05:13:12.366Z,6.87
2018-10-05T05:15:40.455Z,6.85
2018-10-05T05:18:08.522Z,6.47
2018-10-05T05:20:36.603Z,8.25
2018-10-05T05:23:04.813Z,7.65
2018-10-05T05:25:33.099Z,6.17
2018-10-05T05:28:01.197Z,6.00
2018-10-05T05:30:29.442Z,7.37
2018-10-05T05:32:57.526Z,7.05
2018-10-05T05:35:25.607Z,6.78
2018-10-05T05:37:53.687Z,7.20
2018-10-05T05:40:21.818Z,6.13
2018-10-05T05:42:49.839Z,7.25
2018-10-05T05:45:17.922Z,6.65
2018-10-05T05:47:46.006Z,6.00
2018-10-05T05:50:14.089Z,6.20
2018-10-05T05:52:42.158Z,6.03
2018-10-05T05:55:10.239Z,6.90
2018-10-05T05:57:38.311Z,6.83
2018-10-05T06:00:06.500Z,5.95
2018-10-05T06:02:34.660Z,6.55
2018-10-05T06:05:02.742Z,7.03
2018-10-05T06:07:30.834Z,5.80
2018-10-05T06:09:58.914Z,6.15
2018-10-05T06:12:26.995Z,6.10
2018-10-05T06:14:55.074Z,6.77
2018-10-05T06:17:23.165Z,6.50
2018-10-05T06:19:51.238Z,5.92
2018-10-05T06:22:19.577Z,6.75
2018-10-05T06:24:47.404Z,5.53
2018-10-05T06:27:15.498Z,5.67
2018-10-05T06:29:43.570Z,6.53
2018-10-05T06:32:11.650Z,6.65
2018-10-05T06:34:39.726Z,5.87
2018-10-05T06:37:07.806Z,5.70
2018-10-05T06:39:35.890Z,5.75
2018-10-05T06:42:04.003Z,6.53
2018-10-05T06:44:32.067Z,5.62
2018-10-05T06:47:06.950Z,5.83
2018-10-05T06:49:35.033Z,5.00
2018-10-05T06:52:03.101Z,6.23
2018-10-05T06:54:31.187Z,5.63
2018-10-05T06:56:59.266Z,5.30
2018-10-05T06:59:27.338Z,6.53
2018-10-05T07:01:55.465Z,5.13
2018-10-05T07:04:23.498Z,5.63
2018-10-05T07:06:51.582Z,4.77
2018-10-05T07:09:19.679Z,4.80
2018-10-05T07:11:47.723Z,4.50
2018-10-05T07:14:15.795Z,5.10
2018-10-05T07:16:43.894Z,4.90
2018-10-05T07:19:11.974Z,5.50
2018-10-05T07:21:41.298Z,5.33
2018-10-05T07:24:09.370Z,5.20
2018-10-05T07:26:37.454Z,4.90
2018-10-05T07:29:05.543Z,5.80
2018-10-05T07:31:33.630Z,5.10
2018-10-05T07:34:01.710Z,5.17
2018-10-05T07:36:29.788Z,5.10
2018-10-05T07:38:57.851Z,4.20
2018-10-05T07:41:25.936Z,5.37
2018-10-05T07:43:54.135Z,4.73
2018-10-05T07:46:22.223Z,4.50
2018-10-05T07:48:50.295Z,4.33
2018-10-05T07:51:18.379Z,4.97
2018-10-05T07:53:46.471Z,4.20
2018-10-05T07:56:14.563Z,4.27
2018-10-05T07:58:42.635Z,5.07
2018-10-05T08:01:10.809Z,4.17
2018-10-05T08:03:38.874Z,4.17
2018-10-05T08:06:07.296Z,4.13
2018-10-05T08:08:35.599Z,3.90
2018-10-05T08:11:03.666Z,3.90
2018-10-05T08:13:31.755Z,3.67
2018-10-05T08:15:59.846Z,4.00
2018-10-05T08:18:27.931Z,4.57
2018-10-05T08:20:56.054Z,4.10
2018-10-05T08:23:24.080Z,4.47
2018-10-05T08:25:52.154Z,3.93
2018-10-05T08:28:20.255Z,3.63
2018-10-05T08:30:48.323Z,4.30
2018-10-05T08:33:16.408Z,3.80
2018-10-05T08:35:44.498Z,4.13
2018-10-05T08:38:12.575Z,3.73
2018-10-05T08:40:40.646Z,4.57
2018-10-05T08:43:08.736Z,4.50
2018-10-05T08:45:36.814Z,3.63
2018-10-05T08:48:05.034Z,3.90
2018-10-05T08:50:33.129Z,3.83
2018-10-05T08:53:01.216Z,3.77
2018-10-05T08:55:29.273Z,3.70
2018-10-05T08:57:57.370Z,4.00
2018-10-05T09:00:25.506Z,4.40
2018-10-05T09:02:53.535Z,3.60
2018-10-05T09:05:21.594Z,3.23
2018-10-05T09:07:49.678Z,4.17
2018-10-05T09:10:17.770Z,3.73
2018-10-05T09:12:45.843Z,3.93
2018-10-05T09:15:13.903Z,4.00
2018-10-05T09:17:42.009Z,4.00
2018-10-05T09:20:10.093Z,3.90
2018-10-05T09:22:38.154Z,3.70
2018-10-05T09:25:06.231Z,3.93
2018-10-05T09:27:34.302Z,4.07
2018-10-05T09:30:02.392Z,3.83
2018-10-05T09:32:30.466Z,4.13
2018-10-05T09:34:58.533Z,4.17
2018-10-05T09:37:26.651Z,3.90
2018-10-05T09:39:54.683Z,3.30
2018-10-05T09:42:22.763Z,3.60
2018-10-05T09:44:50.864Z,4.10
2018-10-05T09:47:18.926Z,4.00
2018-10-05T09:49:46.991Z,3.33
2018-10-05T09:52:15.107Z,4.10
2018-10-05T09:54:43.125Z,3.60
2018-10-05T09:57:11.210Z,4.10
2018-10-05T09:59:39.336Z,3.90
2018-10-05T10:02:12.843Z,3.40
2018-10-05T10:04:40.905Z,3.27
2018-10-05T10:07:08.970Z,3.50
2018-10-05T10:09:37.050Z,2.97
2018-10-05T10:12:05.162Z,4.13
2018-10-05T10:14:33.218Z,3.27
2018-10-05T10:17:01.286Z,2.90
2018-10-05T10:19:29.358Z,3.37
2018-10-05T10:21:57.466Z,3.63
2018-10-05T10:24:25.506Z,3.70
2018-10-05T10:26:53.575Z,3.10
2018-10-05T10:29:21.645Z,3.43
2018-10-05T10:31:50.734Z,3.20
2018-10-05T10:34:18.831Z,3.70
2018-10-05T10:36:46.981Z,3.40
2018-10-05T10:39:14.985Z,3.30
2018-10-05T10:41:43.041Z,3.13
2018-10-05T10:44:11.114Z,3.47
2018-10-05T10:46:39.183Z,3.03
2018-10-05T10:49:07.526Z,3.03
2018-10-05T10:51:35.595Z,2.70
2018-10-05T10:54:03.773Z,3.03
2018-10-05T10:56:31.727Z,3.10
2018-10-05T10:58:59.806Z,3.10
2018-10-05T11:01:27.878Z,3.27
2018-10-05T11:03:56.021Z,2.80
2018-10-05T11:06:24.019Z,2.50
2018-10-05T11:08:52.089Z,2.87
2018-10-05T11:11:20.157Z,3.40
2018-10-05T11:13:48.230Z,3.17
2018-10-05T11:16:16.305Z,3.27
2018-10-05T11:18:44.398Z,2.47
2018-10-05T11:21:12.502Z,3.17
2018-10-05T11:23:40.594Z,3.47
2018-10-05T11:26:08.667Z,2.90
2018-10-05T11:28:36.734Z,2.10
2018-10-05T11:31:04.810Z,2.57
2018-10-05T11:33:32.882Z,3.00
2018-10-05T11:36:00.954Z,2.67
2018-10-05T11:38:29.040Z,2.80
2018-10-05T11:40:57.172Z,2.83
2018-10-05T11:43:25.206Z,3.00
2018-10-05T11:45:53.336Z,2.67
2018-10-05T11:48:21.398Z,2.70
2018-10-05T11:50:49.474Z,2.43
2018-10-05T11:53:17.598Z,2.93
2018-10-05T11:55:45.777Z,1.90
2018-10-05T11:58:13.870Z,2.30
2018-10-05T12:00:41.942Z,3.03
2018-10-05T12:03:10.006Z,2.90
2018-10-05T12:05:38.108Z,2.80
2018-10-05T12:08:06.326Z,2.20
2018-10-05T12:10:34.398Z,2.50
2018-10-05T12:13:02.683Z,2.20
2018-10-05T12:15:30.769Z,2.50
2018-10-05T12:17:58.835Z,1.87
2018-10-05T12:20:26.928Z,2.03
2018-10-05T12:22:54.991Z,2.70
2018-10-05T12:25:23.058Z,2.00
2018-10-05T12:27:51.140Z,2.13
2018-10-05T12:30:19.217Z,2.30
2018-10-05T12:32:47.291Z,2.07
2018-10-05T12:35:15.360Z,2.57
2018-10-05T12:37:43.426Z,1.80
2018-10-05T12:40:11.506Z,2.30
2018-10-05T12:42:39.587Z,2.07
2018-10-05T12:45:07.659Z,2.17
2018-10-05T12:47:35.715Z,1.70
2018-10-05T12:50:03.797Z,2.20
2018-10-05T12:52:31.926Z,1.97
2018-10-05T12:55:00.002Z,2.40
2018-10-05T12:57:28.168Z,2.60
2018-10-05T12:59:56.234Z,2.00
2018-10-05T13:02:24.307Z,1.67
2018-10-05T13:04:52.445Z,1.60
2018-10-05T13:07:20.466Z,1.90
2018-10-05T13:09:48.599Z,1.90
2018-10-05T13:12:16.657Z,2.10
2018-10-05T13:14:44.735Z,1.87
2018-10-05T13:17:12.815Z,2.10
2018-10-05T13:19:40.875Z,1.93
2018-10-05T13:22:09.111Z,2.27
2018-10-05T13:24:37.260Z,2.13
2018-10-05T13:27:05.403Z,2.10
2018-10-05T13:29:33.478Z,1.97
2018-10-05T13:32:01.559Z,2.07
2018-10-05T13:34:29.626Z,2.20
2018-10-05T13:36:57.715Z,1.63
2018-10-05T13:39:25.778Z,1.93
2018-10-05T13:41:53.866Z,1.97
2018-10-05T13:44:21.927Z,2.07
2018-10-05T13:46:49.998Z,1.43
2018-10-05T13:49:18.067Z,1.93
2018-10-05T13:51:46.130Z,1.73
2018-10-05T13:54:14.194Z,1.77
2018-10-05T13:56:42.262Z,1.80
2018-10-05T13:59:10.331Z,1.60
2018-10-05T14:01:38.415Z,1.60
2018-10-05T14:04:06.475Z,1.63
2018-10-05T14:06:34.558Z,1.73
2018-10-05T14:09:03.030Z,1.83
2018-10-05T14:11:31.094Z,1.70
2018-10-05T14:13:59.162Z,1.87
2018-10-05T14:16:27.238Z,1.73
2018-10-05T14:18:55.302Z,1.40
2018-10-05T14:21:23.378Z,1.70
2018-10-05T14:23:51.442Z,1.90
2018-10-05T14:26:19.510Z,1.57
2018-10-05T14:28:47.602Z,1.50
2018-10-05T14:31:15.662Z,1.70
2018-10-05T14:33:43.770Z,1.70
2018-10-05T14:36:11.786Z,1.97
2018-10-05T14:38:39.856Z,1.47
2018-10-05T14:41:07.927Z,1.83
2018-10-05T14:43:35.996Z,1.50
2018-10-05T14:46:04.067Z,2.40
2018-10-05T14:48:32.167Z,2.17
2018-10-05T14:51:00.230Z,1.90
2018-10-05T14:53:28.321Z,2.23
2018-10-05T14:55:56.402Z,1.90
2018-10-05T14:58:24.471Z,2.00
2018-10-05T15:00:52.541Z,4.27
2018-10-05T15:03:20.615Z,2.03
2018-10-05T15:05:48.685Z,2.20
2018-10-05T15:08:16.751Z,1.97
2018-10-05T15:10:44.874Z,2.00
2018-10-05T15:13:13.020Z,2.20
2018-10-05T15:15:41.051Z,2.40
2018-10-05T15:18:09.114Z,2.00
2018-10-05T15:20:37.190Z,1.77
2018-10-05T15:23:05.267Z,2.27
2018-10-05T15:25:33.362Z,2.10
2018-10-05T15:28:01.427Z,1.87
2018-10-05T15:30:29.482Z,2.60
2018-10-05T15:32:57.563Z,2.30
2018-10-05T15:35:25.622Z,2.17
2018-10-05T15:37:53.707Z,2.00
2018-10-05T15:40:21.770Z,2.10
2018-10-05T15:42:49.847Z,2.40
2018-10-05T15:45:17.923Z,2.30
2018-10-05T15:47:45.990Z,2.20
2018-10-05T15:50:14.054Z,2.33
2018-10-05T15:52:42.122Z,2.30
2018-10-05T15:55:10.195Z,2.53
2018-10-05T15:57:38.267Z,2.53
2018-10-05T16:00:06.333Z,2.90
2018-10-05T16:02:34.402Z,2.50
2018-10-05T16:05:02.466Z,2.80
2018-10-05T16:07:30.543Z,2.90
2018-10-05T16:09:58.626Z,2.77
2018-10-05T16:12:26.771Z,2.90
2018-10-05T16:14:54.792Z,2.97
2018-10-05T16:17:22.838Z,2.30
2018-10-05T16:19:50.902Z,2.67
2018-10-05T16:22:18.971Z,3.13
2018-10-05T16:24:47.073Z,2.63
2018-10-05T16:27:15.143Z,3.23
2018-10-05T16:29:43.214Z,3.30
2018-10-05T16:32:11.785Z,2.40
2018-10-05T16:34:39.852Z,3.53
2018-10-05T16:37:07.927Z,3.40
2018-10-05T16:39:36.034Z,3.03
2018-10-05T16:42:04.274Z,4.00
2018-10-05T16:44:32.403Z,3.20
2018-10-05T16:47:00.469Z,3.23
2018-10-05T16:49:28.585Z,2.97
2018-10-05T16:51:56.687Z,3.37
2018-10-05T16:54:24.759Z,2.90
2018-10-05T16:56:52.854Z,3.27
2018-10-05T16:59:20.926Z,3.03
2018-10-05T17:01:49.009Z,3.20
2018-10-05T17:04:17.092Z,3.73
2018-10-05T17:06:45.161Z,3.43
2018-10-05T17:09:13.822Z,3.00
2018-10-05T17:11:44.929Z,3.23
2018-10-05T17:14:13.011Z,3.50
2018-10-05T17:16:41.298Z,2.87
2018-10-05T17:19:09.782Z,3.00
2018-10-05T17:21:37.894Z,3.20
2018-10-05T17:24:06.098Z,3.43
2018-10-05T17:26:34.179Z,3.20
2018-10-05T17:29:02.261Z,3.30
2018-10-05T17:31:30.340Z,3.13
2018-10-05T17:33:58.559Z,2.80
2018-10-05T17:36:26.628Z,2.80
2018-10-05T17:38:54.703Z,4.00
2018-10-05T17:41:22.774Z,3.70
2018-10-05T17:43:50.854Z,3.40
2018-10-05T17:46:19.076Z,3.30
2018-10-05T17:48:47.270Z,3.60
2018-10-05T17:51:15.340Z,3.67
2018-10-05T17:53:43.422Z,3.47
2018-10-05T17:56:11.557Z,3.50
2018-10-05T17:58:39.663Z,3.90
2018-10-05T18:01:08.085Z,4.20
2018-10-05T18:03:36.200Z,3.80
2018-10-05T18:06:04.268Z,3.73
2018-10-05T18:08:32.381Z,4.20
2018-10-05T18:11:00.430Z,4.30
2018-10-05T18:13:28.642Z,3.90
2018-10-05T18:15:56.740Z,4.10
2018-10-05T18:18:24.814Z,4.20
2018-10-05T18:20:52.876Z,4.40
2018-10-05T18:23:20.946Z,5.10
2018-10-05T18:25:49.151Z,4.40
2018-10-05T18:28:17.350Z,4.43
2018-10-05T18:30:45.441Z,4.47
2018-10-05T18:33:13.518Z,4.30
2018-10-05T18:35:41.582Z,4.77
2018-10-05T18:38:09.735Z,5.20
2018-10-05T18:40:37.862Z,4.17
2018-10-05T18:43:05.940Z,4.30
2018-10-05T18:45:34.329Z,4.67
2018-10-05T18:48:02.481Z,4.43
2018-10-05T18:50:30.550Z,4.70
2018-10-05T18:52:58.718Z,3.97
2018-10-05T18:55:26.819Z,4.53
2018-10-05T18:57:54.902Z,4.80
2018-10-05T19:00:22.982Z,4.97
2018-10-05T19:02:51.058Z,4.80
2018-10-05T19:05:19.263Z,4.67
2018-10-05T19:07:47.453Z,4.43
2018-10-05T19:10:15.529Z,4.50
2018-10-05T19:12:43.607Z,5.30
2018-10-05T19:15:11.688Z,5.10
2018-10-05T19:17:39.771Z,4.60
2018-10-05T19:20:07.951Z,4.40
2018-10-05T19:22:36.026Z,5.23
2018-10-05T19:25:04.101Z,5.00
2018-10-05T19:27:32.166Z,4.57
2018-10-05T19:30:00.245Z,5.50
2018-10-05T19:32:28.455Z,5.10
2018-10-05T19:34:56.549Z,5.43
2018-10-05T19:37:25.006Z,5.03
2018-10-05T19:39:53.082Z,5.87
2018-10-05T19:42:21.188Z,5.70
2018-10-05T19:44:49.324Z,6.10
2018-10-05T19:47:17.445Z,6.10
2018-10-05T19:49:45.530Z,5.33
2018-10-05T19:52:13.626Z,4.93
2018-10-05T19:54:41.712Z,6.00
2018-10-05T19:57:09.783Z,6.63
2018-10-05T19:59:37.868Z,5.47
2018-10-05T20:02:05.964Z,5.53
2018-10-05T20:04:34.022Z,5.43
2018-10-05T20:07:02.325Z,5.40
2018-10-05T20:09:30.535Z,5.60
2018-10-05T20:11:58.615Z,5.50
2018-10-05T20:14:26.771Z,5.50
2018-10-05T20:16:54.850Z,5.87
2018-10-05T20:19:22.979Z,6.00
2018-10-05T20:21:51.075Z,5.70
2018-10-05T20:24:19.253Z,6.10
2018-10-05T20:26:48.346Z,5.87
2018-10-05T20:29:16.431Z,5.50
2018-10-05T20:31:44.524Z,5.77
2018-10-05T20:34:12.598Z,6.57
2018-10-05T20:36:40.874Z,6.00
2018-10-05T20:39:08.758Z,6.57
2018-10-05T20:41:37.508Z,6.60
2018-10-05T20:44:05.602Z,6.30
2018-10-05T20:46:33.698Z,6.90
2018-10-05T20:49:02.132Z,7.07
2018-10-05T20:51:30.355Z,6.67
2018-10-05T20:53:58.380Z,6.40
2018-10-05T20:56:26.649Z,7.40
2018-10-05T20:58:54.749Z,7.10
2018-10-05T21:01:22.843Z,6.60
2018-10-05T21:03:50.950Z,7.50
2018-10-05T21:06:19.021Z,7.63
2018-10-05T21:08:47.130Z,6.33
2018-10-05T21:11:15.234Z,8.10
2018-10-05T21:13:43.563Z,6.80
2018-10-05T21:16:11.673Z,7.17
2018-10-05T21:18:39.740Z,6.90
2018-10-05T21:21:07.837Z,7.40
2018-10-05T21:23:35.950Z,6.33
2018-10-05T21:26:04.098Z,7.57
2018-10-05T21:28:32.190Z,6.90
2018-10-05T21:31:00.292Z,7.67
2018-10-05T21:33:28.457Z,7.50
2018-10-05T21:35:56.496Z,7.83
2018-10-05T21:38:24.566Z,7.90
2018-10-05T21:40:52.674Z,8.30
2018-10-05T21:43:20.745Z,8.63
2018-10-05T21:45:48.852Z,7.97
2018-10-05T21:48:16.951Z,8.60
2018-10-05T21:50:45.035Z,8.50
2018-10-05T21:53:13.136Z,9.43
2018-10-05T21:55:41.224Z,7.70
2018-10-05T21:58:09.310Z,8.03
2018-10-05T22:00:39.323Z,8.40
2018-10-05T22:03:07.458Z,8.97
2018-10-05T22:05:35.545Z,9.10
2018-10-05T22:08:03.705Z,9.73
2018-10-05T22:10:31.994Z,13.00
2018-10-05T22:13:00.270Z,13.90
2018-10-05T22:15:28.546Z,13.30
2018-10-05T22:17:56.691Z,10.23
2018-10-05T22:20:24.755Z,10.67
2018-10-05T22:22:52.834Z,10.33
2018-10-05T22:25:20.934Z,10.27
2018-10-05T22:27:49.006Z,11.17
2018-10-05T22:30:17.122Z,13.70
2018-10-05T22:32:45.198Z,13.60
2018-10-05T22:35:13.328Z,15.30
2018-10-05T22:37:41.407Z,13.77
2018-10-05T22:40:09.487Z,13.50
2018-10-05T22:42:37.554Z,12.60
2018-10-05T22:45:05.642Z,11.10
2018-10-05T22:47:33.718Z,12.63
2018-10-05T22:50:01.799Z,12.27
2018-10-05T22:52:29.866Z,12.13
2018-10-05T22:54:57.954Z,12.20
2018-10-05T22:57:26.026Z,14.77
2018-10-05T22:59:54.106Z,12.70
2018-10-05T23:02:22.191Z,12.10
2018-10-05T23:04:50.384Z,13.00
2018-10-05T23:07:18.444Z,11.30
2018-10-05T23:09:46.523Z,11.47
2018-10-05T23:12:14.598Z,11.80
2018-10-05T23:14:42.667Z,11.50
2018-10-05T23:17:10.846Z,11.20
2018-10-05T23:19:38.898Z,12.23
2018-10-05T23:22:06.977Z,11.57
2018-10-05T23:24:35.046Z,11.50
2018-10-05T23:27:03.131Z,10.30
2018-10-05T23:29:31.203Z,10.20
2018-10-05T23:31:59.283Z,10.00
2018-10-05T23:34:27.438Z,9.93
2018-10-05T23:36:55.519Z,10.37
2018-10-05T23:39:23.588Z,10.30
2018-10-05T23:41:51.671Z,9.67
2018-10-05T23:44:19.750Z,11.40
2018-10-05T23:46:47.843Z,10.87
2018-10-05T23:49:15.911Z,11.93
2018-10-05T23:51:43.990Z,11.10
2018-10-05T23:54:12.067Z,11.33
2018-10-05T23:56:40.148Z,11.53
2018-10-05T23:59:08.213Z,11.67
